sensor_id;sensor_type;location;lat;lon;timestamp;pressure;altitude;pressure_sealevel;temperature;humidity
19890;BME280;10107;51.198;6.824;2022-10-16T00:03:55;-21657.66;;;12.95;100.00
19890;BME280;10107;51.198;6.824;2022-10-16T00:07:58;-21657.13;;;12.93;100.00
19890;BME280;10107;51.198;6.824;2022-10-16T00:12:00;-21656.06;;;12.88;100.00
19890;BME280;10107;51.198;6.824;2022-10-16T00:16:05;-21655.94;;;12.88;100.00
19890;BME280;10107;51.198;6.824;2022-10-16T00:20:08;-21656.34;;;12.90;100.00
19890;BME280;10107;51.198;6.824;2022-10-16T00:24:12;-21655.28;;;12.85;100.00
19890;BME280;10107;51.198;6.824;2022-10-16T00:28:15;-21654.34;;;12.82;100.00
19890;BME280;10107;51.198;6.824;2022-10-16T00:32:16;-21653.44;;;12.78;100.00
19890;BME280;10107;51.198;6.824;2022-10-16T00:36:21;-21653.03;;;12.77;100.00
19890;BME280;10107;51.198;6.824;2022-10-16T00:40:24;-21652.91;;;12.76;100.00
19890;BME280;10107;51.198;6.824;2022-10-16T00:44:47;-21651.97;;;12.73;100.00
19890;BME280;10107;51.198;6.824;2022-10-16T00:48:52;-21650.66;;;12.67;100.00
19890;BME280;10107;51.198;6.824;2022-10-16T00:52:56;-21650.00;;;12.65;100.00
19890;BME280;10107;51.198;6.824;2022-10-16T00:57:03;-21650.00;;;12.65;100.00
19890;BME280;10107;51.198;6.824;2022-10-16T01:01:05;-21648.69;;;12.60;100.00
19890;BME280;10107;51.198;6.824;2022-10-16T01:05:08;-21647.63;;;12.56;100.00
19890;BME280;10107;51.198;6.824;2022-10-16T01:09:14;-21647.34;;;12.55;100.00
19890;BME280;10107;51.198;6.824;2022-10-16T01:13:24;-21647.63;;;12.56;100.00
19890;BME280;10107;51.198;6.824;2022-10-16T01:17:29;-21648.28;;;12.58;100.00
19890;BME280;10107;51.198;6.824;2022-10-16T01:21:37;-21649.47;;;12.63;100.00
19890;BME280;10107;51.198;6.824;2022-10-16T01:25:55;-21650.13;;;12.65;100.00
19890;BME280;10107;51.198;6.824;2022-10-16T01:30:04;-21650.00;;;12.65;100.00
19890;BME280;10107;51.198;6.824;2022-10-16T01:34:15;-21650.25;;;12.66;100.00
19890;BME280;10107;51.198;6.824;2022-10-16T01:38:22;-21651.44;;;12.71;100.00
19890;BME280;10107;51.198;6.824;2022-10-16T01:42:29;-21651.06;;;12.69;100.00
19890;BME280;10107;51.198;6.824;2022-10-16T01:46:35;-21649.88;;;12.64;100.00
19890;BME280;10107;51.198;6.824;2022-10-16T01:50:39;-21649.47;;;12.63;100.00
19890;BME280;10107;51.198;6.824;2022-10-16T01:54:46;-21650.53;;;12.67;100.00
19890;BME280;10107;51.198;6.824;2022-10-16T01:58:51;-21652.91;;;12.76;100.00
19890;BME280;10107;51.198;6.824;2022-10-16T02:02:57;-21654.22;;;12.81;100.00
19890;BME280;10107;51.198;6.824;2022-10-16T02:07:02;-21656.34;;;12.90;100.00
19890;BME280;10107;51.198;6.824;2022-10-16T02:11:04;-21657.91;;;12.96;100.00
19890;BME280;10107;51.198;6.824;2022-10-16T02:15:07;-21658.97;;;13.00;100.00
19890;BME280;10107;51.198;6.824;2022-10-16T02:19:11;-21660.03;;;13.04;100.00
19890;BME280;10107;51.198;6.824;2022-10-16T02:23:18;-21660.16;;;13.04;100.00
19890;BME280;10107;51.198;6.824;2022-10-16T02:27:25;-21659.91;;;13.03;100.00
19890;BME280;10107;51.198;6.824;2022-10-16T02:31:32;-21659.25;;;13.01;100.00
19890;BME280;10107;51.198;6.824;2022-10-16T02:35:37;-21659.09;;;13.00;100.00
19890;BME280;10107;51.198;6.824;2022-10-16T02:39:40;-21658.44;;;12.98;100.00
19890;BME280;10107;51.198;6.824;2022-10-16T02:43:42;-21657.78;;;12.95;100.00
19890;BME280;10107;51.198;6.824;2022-10-16T02:47:44;-21657.25;;;12.93;100.00
19890;BME280;10107;51.198;6.824;2022-10-16T02:51:47;-21656.84;;;12.92;100.00
19890;BME280;10107;51.198;6.824;2022-10-16T02:55:50;-21656.34;;;12.90;100.00
19890;BME280;10107;51.198;6.824;2022-10-16T02:59:52;-21656.06;;;12.88;100.00
19890;BME280;10107;51.198;6.824;2022-10-16T03:03:54;-21655.28;;;12.85;100.00
19890;BME280;10107;51.198;6.824;2022-10-16T03:07:57;-21654.09;;;12.81;100.00
19890;BME280;10107;51.198;6.824;2022-10-16T03:12:00;-21653.81;;;12.80;100.00
19890;BME280;10107;51.198;6.824;2022-10-16T03:16:02;-21653.56;;;12.79;100.00
19890;BME280;10107;51.198;6.824;2022-10-16T03:20:05;-21653.16;;;12.77;100.00
19890;BME280;10107;51.198;6.824;2022-10-16T03:24:08;-21653.03;;;12.77;100.00
19890;BME280;10107;51.198;6.824;2022-10-16T03:28:10;-21653.28;;;12.78;100.00
19890;BME280;10107;51.198;6.824;2022-10-16T03:32:12;-21653.03;;;12.77;100.00
19890;BME280;10107;51.198;6.824;2022-10-16T03:36:13;-21653.03;;;12.77;100.00
19890;BME280;10107;51.198;6.824;2022-10-16T03:40:17;-21652.63;;;12.75;100.00
19890;BME280;10107;51.198;6.824;2022-10-16T03:44:19;-21652.25;;;12.74;100.00
19890;BME280;10107;51.198;6.824;2022-10-16T03:48:20;-21651.31;;;12.70;100.00
19890;BME280;10107;51.198;6.824;2022-10-16T03:52:22;-21649.34;;;12.62;100.00
19890;BME280;10107;51.198;6.824;2022-10-16T03:56:25;-21648.28;;;12.58;100.00
19890;BME280;10107;51.198;6.824;2022-10-16T04:00:27;-21646.56;;;12.52;100.00
19890;BME280;10107;51.198;6.824;2022-10-16T04:04:29;-21644.97;;;12.45;100.00
19890;BME280;10107;51.198;6.824;2022-10-16T04:08:31;-21644.59;;;12.44;100.00
19890;BME280;10107;51.198;6.824;2022-10-16T04:12:36;-21644.44;;;12.43;100.00
19890;BME280;10107;51.198;6.824;2022-10-16T04:16:38;-21643.53;;;12.40;100.00
19890;BME280;10107;51.198;6.824;2022-10-16T04:20:40;-21643.41;;;12.39;100.00
19890;BME280;10107;51.198;6.824;2022-10-16T04:24:42;-21642.59;;;12.36;100.00
19890;BME280;10107;51.198;6.824;2022-10-16T04:28:45;-21642.88;;;12.37;100.00
19890;BME280;10107;51.198;6.824;2022-10-16T04:32:48;-21641.94;;;12.34;100.00
19890;BME280;10107;51.198;6.824;2022-10-16T04:36:50;-21640.75;;;12.29;100.00
19890;BME280;10107;51.198;6.824;2022-10-16T04:40:52;-21639.44;;;12.24;100.00
19890;BME280;10107;51.198;6.824;2022-10-16T04:44:55;-21638.78;;;12.21;100.00
19890;BME280;10107;51.198;6.824;2022-10-16T04:48:57;-21638.38;;;12.20;100.00
19890;BME280;10107;51.198;6.824;2022-10-16T04:52:59;-21637.59;;;12.17;100.00
19890;BME280;10107;51.198;6.824;2022-10-16T04:57:01;-21637.84;;;12.18;100.00
19890;BME280;10107;51.198;6.824;2022-10-16T05:01:04;-21637.06;;;12.15;100.00
19890;BME280;10107;51.198;6.824;2022-10-16T05:05:06;-21636.78;;;12.14;100.00
19890;BME280;10107;51.198;6.824;2022-10-16T05:09:08;-21636.94;;;12.14;100.00
19890;BME280;10107;51.198;6.824;2022-10-16T05:13:11;-21636.25;;;12.12;100.00
19890;BME280;10107;51.198;6.824;2022-10-16T05:17:14;-21635.34;;;12.08;100.00
19890;BME280;10107;51.198;6.824;2022-10-16T05:21:16;-21634.69;;;12.05;100.00
19890;BME280;10107;51.198;6.824;2022-10-16T05:25:17;-21634.69;;;12.05;100.00
19890;BME280;10107;51.198;6.824;2022-10-16T05:29:20;-21635.06;;;12.07;100.00
19890;BME280;10107;51.198;6.824;2022-10-16T05:33:25;-21636.25;;;12.12;100.00
19890;BME280;10107;51.198;6.824;2022-10-16T05:37:27;-21635.06;;;12.07;100.00
19890;BME280;10107;51.198;6.824;2022-10-16T05:41:29;-21634.16;;;12.03;100.00
19890;BME280;10107;51.198;6.824;2022-10-16T05:45:31;-21634.41;;;12.04;100.00
19890;BME280;10107;51.198;6.824;2022-10-16T05:49:34;-21635.06;;;12.07;100.00
19890;BME280;10107;51.198;6.824;2022-10-16T05:53:38;-21635.19;;;12.07;100.00
19890;BME280;10107;51.198;6.824;2022-10-16T05:57:39;-21637.06;;;12.15;100.00
19890;BME280;10107;51.198;6.824;2022-10-16T06:01:41;-21638.13;;;12.19;100.00
19890;BME280;10107;51.198;6.824;2022-10-16T06:05:44;-21638.38;;;12.20;100.00
19890;BME280;10107;51.198;6.824;2022-10-16T06:09:48;-21639.16;;;12.23;100.00
19890;BME280;10107;51.198;6.824;2022-10-16T06:13:50;-21641.16;;;12.31;100.00
19890;BME280;10107;51.198;6.824;2022-10-16T06:17:51;-21643.41;;;12.39;100.00
19890;BME280;10107;51.198;6.824;2022-10-16T06:21:54;-21645.25;;;12.46;100.00
19890;BME280;10107;51.198;6.824;2022-10-16T06:26:04;-21647.22;;;12.54;100.00
19890;BME280;10107;51.198;6.824;2022-10-16T06:30:07;-21651.59;;;12.71;100.00
19890;BME280;10107;51.198;6.824;2022-10-16T06:34:09;-21655.28;;;12.85;100.00
19890;BME280;10107;51.198;6.824;2022-10-16T06:38:13;-21658.44;;;12.98;100.00
19890;BME280;10107;51.198;6.824;2022-10-16T06:42:14;-21662.66;;;13.14;100.00
19890;BME280;10107;51.198;6.824;2022-10-16T06:46:19;-21667.03;;;13.31;100.00
19890;BME280;10107;51.198;6.824;2022-10-16T06:50:21;-21672.03;;;13.51;100.00
19890;BME280;10107;51.198;6.824;2022-10-16T06:54:25;-21679.03;;;13.78;100.00
19890;BME280;10107;51.198;6.824;2022-10-16T06:58:27;-21687.72;;;14.12;100.00
19890;BME280;10107;51.198;6.824;2022-10-16T07:02:28;-21694.16;;;14.37;100.00
19890;BME280;10107;51.198;6.824;2022-10-16T07:06:31;-21695.47;;;14.42;100.00
19890;BME280;10107;51.198;6.824;2022-10-16T07:10:35;-21692.72;;;14.31;100.00
19890;BME280;10107;51.198;6.824;2022-10-16T07:14:37;-21688.75;;;14.16;100.00
19890;BME280;10107;51.198;6.824;2022-10-16T07:18:39;-21686.41;;;14.06;100.00
19890;BME280;10107;51.198;6.824;2022-10-16T07:22:42;-21687.19;;;14.10;100.00
19890;BME280;10107;51.198;6.824;2022-10-16T07:26:46;-21691.91;;;14.28;100.00
19890;BME280;10107;51.198;6.824;2022-10-16T07:30:47;-21740.69;;;16.18;98.17
19890;BME280;10107;51.198;6.824;2022-10-16T07:34:49;-21745.56;;;16.37;89.38
19890;BME280;10107;51.198;6.824;2022-10-16T07:38:51;-21730.19;;;15.77;93.10
19890;BME280;10107;51.198;6.824;2022-10-16T07:42:54;-21733.63;;;15.91;94.83
19890;BME280;10107;51.198;6.824;2022-10-16T07:46:56;-21822.50;;;19.39;79.25
19890;BME280;10107;51.198;6.824;2022-10-16T07:50:57;-22000.44;;;26.43;49.69
19890;BME280;10107;51.198;6.824;2022-10-16T07:55:00;-22114.81;;;31.01;36.47
19890;BME280;10107;51.198;6.824;2022-10-16T07:59:03;-22168.94;;;33.19;32.36
19890;BME280;10107;51.198;6.824;2022-10-16T08:03:05;-22131.78;;;31.69;33.04
19890;BME280;10107;51.198;6.824;2022-10-16T08:07:07;-22049.53;;;28.39;38.96
19890;BME280;10107;51.198;6.824;2022-10-16T08:11:09;-21995.66;;;26.24;43.84
19890;BME280;10107;51.198;6.824;2022-10-16T08:15:13;-21968.56;;;25.16;45.81
19890;BME280;10107;51.198;6.824;2022-10-16T08:19:14;-21961.59;;;24.88;48.56
19890;BME280;10107;51.198;6.824;2022-10-16T08:23:16;-21970.00;;;25.22;46.90
19890;BME280;10107;51.198;6.824;2022-10-16T08:27:18;-21977.22;;;25.51;46.04
19890;BME280;10107;51.198;6.824;2022-10-16T08:31:21;-21992.31;;;26.11;46.09
19890;BME280;10107;51.198;6.824;2022-10-16T08:35:23;-21985.88;;;25.85;44.67
19890;BME280;10107;51.198;6.824;2022-10-16T08:39:25;-21979.81;;;25.61;45.08
19890;BME280;10107;51.198;6.824;2022-10-16T08:43:35;-21990.25;;;26.02;44.54
19890;BME280;10107;51.198;6.824;2022-10-16T08:47:48;-21986.91;;;25.89;45.01
19890;BME280;10107;51.198;6.824;2022-10-16T08:51:50;-22000.56;;;26.43;44.28
19890;BME280;10107;51.198;6.824;2022-10-16T08:55:53;-21995.41;;;26.23;42.42
19890;BME280;10107;51.198;6.824;2022-10-16T08:59:58;-21991.66;;;26.08;43.95
19890;BME280;10107;51.198;6.824;2022-10-16T09:04:13;-21989.88;;;26.01;43.30
19890;BME280;10107;51.198;6.824;2022-10-16T09:08:30;-21995.41;;;26.23;43.34
19890;BME280;10107;51.198;6.824;2022-10-16T09:12:40;-22014.34;;;26.98;41.28
19890;BME280;10107;51.198;6.824;2022-10-16T09:16:49;-22033.75;;;27.76;40.57
19890;BME280;10107;51.198;6.824;2022-10-16T09:21:01;-22051.34;;;28.46;38.86
19890;BME280;10107;51.198;6.824;2022-10-16T09:25:12;-22071.72;;;29.28;36.62
19890;BME280;10107;51.198;6.824;2022-10-16T09:29:15;-22077.47;;;29.51;35.91
19890;BME280;10107;51.198;6.824;2022-10-16T09:33:23;-22089.50;;;29.99;35.17
19890;BME280;10107;51.198;6.824;2022-10-16T09:37:28;-22093.47;;;30.15;34.12
19890;BME280;10107;51.198;6.824;2022-10-16T09:41:29;-22098.34;;;30.34;33.73
19890;BME280;10107;51.198;6.824;2022-10-16T09:45:31;-22094.88;;;30.20;33.79
19890;BME280;10107;51.198;6.824;2022-10-16T09:49:33;-22099.50;;;30.39;33.02
19890;BME280;10107;51.198;6.824;2022-10-16T09:53:40;-22112.66;;;30.92;32.51
19890;BME280;10107;51.198;6.824;2022-10-16T09:57:48;-22112.00;;;30.89;32.46
19890;BME280;10107;51.198;6.824;2022-10-16T10:01:52;-22069.16;;;29.17;34.46
19890;BME280;10107;51.198;6.824;2022-10-16T10:05:55;-22010.09;;;26.81;39.21
19890;BME280;10107;51.198;6.824;2022-10-16T10:10:00;-22017.56;;;27.11;39.33
19890;BME280;10107;51.198;6.824;2022-10-16T10:14:06;-22060.97;;;28.85;36.36
19890;BME280;10107;51.198;6.824;2022-10-16T10:18:16;-22037.59;;;27.91;36.61
19890;BME280;10107;51.198;6.824;2022-10-16T10:22:26;-22019.22;;;27.18;38.81
19890;BME280;10107;51.198;6.824;2022-10-16T10:26:31;-22018.72;;;27.16;39.18
19890;BME280;10107;51.198;6.824;2022-10-16T10:30:39;-21961.22;;;24.87;42.88
19890;BME280;10107;51.198;6.824;2022-10-16T10:34:57;-21937.56;;;23.93;46.25
19890;BME280;10107;51.198;6.824;2022-10-16T10:39:07;-21967.53;;;25.12;44.45
19890;BME280;10107;51.198;6.824;2022-10-16T10:43:18;-22000.16;;;26.42;40.69
19890;BME280;10107;51.198;6.824;2022-10-16T10:47:28;-22011.63;;;26.88;41.13
19890;BME280;10107;51.198;6.824;2022-10-16T10:51:39;-22057.38;;;28.70;36.38
19890;BME280;10107;51.198;6.824;2022-10-16T10:55:48;-22082.09;;;29.69;34.36
19890;BME280;10107;51.198;6.824;2022-10-16T11:00:03;-22048.50;;;28.35;37.16
19890;BME280;10107;51.198;6.824;2022-10-16T11:04:27;-22062.88;;;28.92;36.33
19890;BME280;10107;51.198;6.824;2022-10-16T11:08:33;-22030.94;;;27.64;37.80
19890;BME280;10107;51.198;6.824;2022-10-16T11:12:39;-22039.16;;;27.97;38.09
19890;BME280;10107;51.198;6.824;2022-10-16T11:16:49;-22090.03;;;30.01;34.06
19890;BME280;10107;51.198;6.824;2022-10-16T11:20:56;-22110.59;;;30.84;33.29
19890;BME280;10107;51.198;6.824;2022-10-16T11:25:02;-22118.13;;;31.14;31.57
19890;BME280;10107;51.198;6.824;2022-10-16T11:29:12;-22132.53;;;31.72;30.34
19890;BME280;10107;51.198;6.824;2022-10-16T11:33:24;-22146.94;;;32.30;30.22
19890;BME280;10107;51.198;6.824;2022-10-16T11:37:37;-22083.88;;;29.76;33.44
19890;BME280;10107;51.198;6.824;2022-10-16T11:41:44;-22030.16;;;27.61;36.31
19890;BME280;10107;51.198;6.824;2022-10-16T11:45:49;-22011.88;;;26.89;37.72
19890;BME280;10107;51.198;6.824;2022-10-16T11:49:58;-22009.97;;;26.81;38.31
19890;BME280;10107;51.198;6.824;2022-10-16T11:54:05;-22034.66;;;27.79;36.66
19890;BME280;10107;51.198;6.824;2022-10-16T11:58:15;-22050.94;;;28.44;35.59
19890;BME280;10107;51.198;6.824;2022-10-16T12:02:33;-22030.66;;;27.63;36.35
19890;BME280;10107;51.198;6.824;2022-10-16T12:06:51;-22005.06;;;26.61;38.98
19890;BME280;10107;51.198;6.824;2022-10-16T12:11:06;-21979.28;;;25.59;41.09
19890;BME280;10107;51.198;6.824;2022-10-16T12:15:23;-21951.78;;;24.49;43.40
19890;BME280;10107;51.198;6.824;2022-10-16T12:19:28;-21939.63;;;24.01;46.92
19890;BME280;10107;51.198;6.824;2022-10-16T12:23:33;-21924.22;;;23.40;47.25
19890;BME280;10107;51.198;6.824;2022-10-16T12:27:42;-21910.72;;;22.87;49.66
19890;BME280;10107;51.198;6.824;2022-10-16T12:31:47;-21903.84;;;22.60;49.95
19890;BME280;10107;51.198;6.824;2022-10-16T12:35:50;-21892.56;;;22.15;51.65
19890;BME280;10107;51.198;6.824;2022-10-16T12:39:54;-21892.81;;;22.16;52.57
19890;BME280;10107;51.198;6.824;2022-10-16T12:43:59;-21901.78;;;22.51;51.30
19890;BME280;10107;51.198;6.824;2022-10-16T12:48:04;-21903.47;;;22.58;51.49
19890;BME280;10107;51.198;6.824;2022-10-16T12:52:27;-21909.16;;;22.81;51.19
19890;BME280;10107;51.198;6.824;2022-10-16T12:56:40;-21912.53;;;22.94;49.49
19890;BME280;10107;51.198;6.824;2022-10-16T13:00:50;-21911.25;;;22.89;49.91
19890;BME280;10107;51.198;6.824;2022-10-16T13:05:18;-21903.72;;;22.59;49.14
19890;BME280;10107;51.198;6.824;2022-10-16T13:09:32;-21891.38;;;22.10;49.02
19890;BME280;10107;51.198;6.824;2022-10-16T13:14:07;-21885.28;;;21.86;49.02
19890;BME280;10107;51.198;6.824;2022-10-16T13:18:15;-21884.91;;;21.85;50.99
19890;BME280;10107;51.198;6.824;2022-10-16T13:22:21;-21887.75;;;21.96;51.05
19890;BME280;10107;51.198;6.824;2022-10-16T13:26:33;-21876.31;;;21.51;52.06
19890;BME280;10107;51.198;6.824;2022-10-16T13:30:40;-21865.78;;;21.09;53.52
19890;BME280;10107;51.198;6.824;2022-10-16T13:34:44;-21863.44;;;21.00;53.92
19890;BME280;10107;51.198;6.824;2022-10-16T13:38:46;-21857.72;;;20.77;54.22
19890;BME280;10107;51.198;6.824;2022-10-16T13:42:50;-21861.88;;;20.94;54.99
19890;BME280;10107;51.198;6.824;2022-10-16T13:46:59;-21866.03;;;21.10;54.26
19890;BME280;10107;51.198;6.824;2022-10-16T13:51:05;-21863.16;;;20.99;55.05
19890;BME280;10107;51.198;6.824;2022-10-16T13:55:11;-21862.66;;;20.97;54.22
19890;BME280;10107;51.198;6.824;2022-10-16T13:59:23;-21867.59;;;21.16;54.95
19890;BME280;10107;51.198;6.824;2022-10-16T14:03:27;-21861.47;;;20.92;55.90
19890;BME280;10107;51.198;6.824;2022-10-16T14:07:30;-21851.31;;;20.52;55.79
19890;BME280;10107;51.198;6.824;2022-10-16T14:11:33;-21845.84;;;20.31;56.96
19890;BME280;10107;51.198;6.824;2022-10-16T14:15:38;-21848.31;;;20.41;58.11
19890;BME280;10107;51.198;6.824;2022-10-16T14:19:46;-21852.25;;;20.56;57.26
19890;BME280;10107;51.198;6.824;2022-10-16T14:23:48;-21855.63;;;20.69;57.24
19890;BME280;10107;51.198;6.824;2022-10-16T14:27:57;-21863.81;;;21.02;56.92
19890;BME280;10107;51.198;6.824;2022-10-16T14:32:01;-21865.13;;;21.07;56.04
19890;BME280;10107;51.198;6.824;2022-10-16T14:36:05;-21857.44;;;20.76;56.13
19890;BME280;10107;51.198;6.824;2022-10-16T14:40:14;-21848.19;;;20.40;56.75
19890;BME280;10107;51.198;6.824;2022-10-16T14:44:17;-21844.16;;;20.24;56.93
19890;BME280;10107;51.198;6.824;2022-10-16T14:48:20;-21844.41;;;20.25;57.52
19890;BME280;10107;51.198;6.824;2022-10-16T14:52:23;-21842.59;;;20.18;57.94
19890;BME280;10107;51.198;6.824;2022-10-16T14:56:29;-21840.50;;;20.10;58.50
19890;BME280;10107;51.198;6.824;2022-10-16T15:00:31;-21838.16;;;20.01;59.27
19890;BME280;10107;51.198;6.824;2022-10-16T15:04:33;-21834.66;;;19.87;58.55
19890;BME280;10107;51.198;6.824;2022-10-16T15:08:36;-21833.34;;;19.82;58.77
19890;BME280;10107;51.198;6.824;2022-10-16T15:12:37;-21831.50;;;19.74;59.77
19890;BME280;10107;51.198;6.824;2022-10-16T15:16:39;-21828.25;;;19.62;61.26
19890;BME280;10107;51.198;6.824;2022-10-16T15:20:41;-21825.13;;;19.49;61.35
19890;BME280;10107;51.198;6.824;2022-10-16T15:24:44;-21824.34;;;19.46;63.55
19890;BME280;10107;51.198;6.824;2022-10-16T15:28:45;-21822.38;;;19.38;65.05
19890;BME280;10107;51.198;6.824;2022-10-16T15:32:47;-21819.50;;;19.27;65.45
19890;BME280;10107;51.198;6.824;2022-10-16T15:36:49;-21815.84;;;19.13;64.30
19890;BME280;10107;51.198;6.824;2022-10-16T15:40:52;-21814.81;;;19.09;65.42
19890;BME280;10107;51.198;6.824;2022-10-16T15:44:53;-21812.31;;;18.99;66.99
19890;BME280;10107;51.198;6.824;2022-10-16T15:48:57;-21808.94;;;18.86;67.45
19890;BME280;10107;51.198;6.824;2022-10-16T15:52:58;-21806.06;;;18.74;67.81
19890;BME280;10107;51.198;6.824;2022-10-16T15:57:01;-21803.19;;;18.63;69.04
19890;BME280;10107;51.198;6.824;2022-10-16T16:01:03;-21800.31;;;18.52;70.11
19890;BME280;10107;51.198;6.824;2022-10-16T16:05:07;-21797.81;;;18.42;70.87
19890;BME280;10107;51.198;6.824;2022-10-16T16:09:09;-21795.22;;;18.32;71.64
19890;BME280;10107;51.198;6.824;2022-10-16T16:13:12;-21792.59;;;18.21;72.13
19890;BME280;10107;51.198;6.824;2022-10-16T16:17:14;-21790.09;;;18.12;73.08
19890;BME280;10107;51.198;6.824;2022-10-16T16:21:15;-21787.50;;;18.01;73.66
19890;BME280;10107;51.198;6.824;2022-10-16T16:25:17;-21784.47;;;17.90;74.49
19890;BME280;10107;51.198;6.824;2022-10-16T16:29:20;-21781.97;;;17.80;75.27
19890;BME280;10107;51.198;6.824;2022-10-16T16:33:22;-21779.38;;;17.70;75.99
19890;BME280;10107;51.198;6.824;2022-10-16T16:37:24;-21776.50;;;17.58;77.03
19890;BME280;10107;51.198;6.824;2022-10-16T16:41:27;-21774.13;;;17.49;78.01
19890;BME280;10107;51.198;6.824;2022-10-16T16:45:34;-21771.66;;;17.39;78.85
19890;BME280;10107;51.198;6.824;2022-10-16T16:49:36;-21769.81;;;17.32;79.58
19890;BME280;10107;51.198;6.824;2022-10-16T16:53:38;-21768.38;;;17.27;80.58
19890;BME280;10107;51.198;6.824;2022-10-16T16:57:39;-21766.41;;;17.19;81.70
19890;BME280;10107;51.198;6.824;2022-10-16T17:01:43;-21764.97;;;17.13;83.16
19890;BME280;10107;51.198;6.824;2022-10-16T17:05:55;-21764.31;;;17.11;83.53
19890;BME280;10107;51.198;6.824;2022-10-16T17:09:56;-21764.06;;;17.10;84.46
19890;BME280;10107;51.198;6.824;2022-10-16T17:13:59;-21763.53;;;17.08;85.06
19890;BME280;10107;51.198;6.824;2022-10-16T17:18:02;-21763.13;;;17.06;86.57
19890;BME280;10107;51.198;6.824;2022-10-16T17:22:04;-21763.00;;;17.06;86.77
19890;BME280;10107;51.198;6.824;2022-10-16T17:26:08;-21762.88;;;17.05;87.42
19890;BME280;10107;51.198;6.824;2022-10-16T17:30:09;-21763.13;;;17.06;88.42
19890;BME280;10107;51.198;6.824;2022-10-16T17:34:12;-21762.59;;;17.04;89.15
19890;BME280;10107;51.198;6.824;2022-10-16T17:38:14;-21762.88;;;17.05;89.87
19890;BME280;10107;51.198;6.824;2022-10-16T17:42:16;-21762.59;;;17.04;90.42
19890;BME280;10107;51.198;6.824;2022-10-16T17:46:20;-21762.59;;;17.04;90.88
19890;BME280;10107;51.198;6.824;2022-10-16T17:50:23;-21762.22;;;17.02;91.92
19890;BME280;10107;51.198;6.824;2022-10-16T17:54:25;-21762.88;;;17.05;92.01
19890;BME280;10107;51.198;6.824;2022-10-16T17:58:30;-21762.75;;;17.05;92.33
19890;BME280;10107;51.198;6.824;2022-10-16T18:02:32;-21762.75;;;17.05;93.08
19890;BME280;10107;51.198;6.824;2022-10-16T18:06:36;-21762.34;;;17.03;94.20
19890;BME280;10107;51.198;6.824;2022-10-16T18:10:44;-21762.75;;;17.05;94.96
19890;BME280;10107;51.198;6.824;2022-10-16T18:14:46;-21762.75;;;17.05;95.23
19890;BME280;10107;51.198;6.824;2022-10-16T18:18:48;-21762.22;;;17.02;96.47
19890;BME280;10107;51.198;6.824;2022-10-16T18:22:51;-21761.56;;;17.00;97.03
19890;BME280;10107;51.198;6.824;2022-10-16T18:26:54;-21760.50;;;16.96;97.64
19890;BME280;10107;51.198;6.824;2022-10-16T18:30:59;-21759.72;;;16.93;98.92
19890;BME280;10107;51.198;6.824;2022-10-16T18:35:01;-21760.13;;;16.94;99.78
19890;BME280;10107;51.198;6.824;2022-10-16T18:39:06;-21760.38;;;16.95;99.83
19890;BME280;10107;51.198;6.824;2022-10-16T18:43:09;-21760.50;;;16.96;100.00
19890;BME280;10107;51.198;6.824;2022-10-16T18:47:11;-21761.44;;;16.99;100.00
19890;BME280;10107;51.198;6.824;2022-10-16T18:51:15;-21761.56;;;17.00;100.00
19890;BME280;10107;51.198;6.824;2022-10-16T18:55:19;-21761.28;;;16.99;100.00
19890;BME280;10107;51.198;6.824;2022-10-16T18:59:22;-21761.56;;;17.00;100.00
19890;BME280;10107;51.198;6.824;2022-10-16T19:03:25;-21760.38;;;16.95;100.00
19890;BME280;10107;51.198;6.824;2022-10-16T19:07:27;-21758.81;;;16.89;100.00
19890;BME280;10107;51.198;6.824;2022-10-16T19:11:30;-21757.38;;;16.83;100.00
19890;BME280;10107;51.198;6.824;2022-10-16T19:15:33;-21756.31;;;16.79;100.00
19890;BME280;10107;51.198;6.824;2022-10-16T19:19:35;-21754.59;;;16.73;100.00
19890;BME280;10107;51.198;6.824;2022-10-16T19:23:38;-21753.81;;;16.70;100.00
19890;BME280;10107;51.198;6.824;2022-10-16T19:27:41;-21753.44;;;16.68;100.00
19890;BME280;10107;51.198;6.824;2022-10-16T19:31:43;-21752.63;;;16.65;100.00
19890;BME280;10107;51.198;6.824;2022-10-16T19:35:45;-21751.59;;;16.61;100.00
19890;BME280;10107;51.198;6.824;2022-10-16T19:39:48;-21750.03;;;16.55;100.00
19890;BME280;10107;51.198;6.824;2022-10-16T19:43:52;-21748.06;;;16.47;100.00
19890;BME280;10107;51.198;6.824;2022-10-16T19:47:55;-21745.28;;;16.36;100.00
19890;BME280;10107;51.198;6.824;2022-10-16T19:51:57;-21740.69;;;16.18;100.00
19890;BME280;10107;51.198;6.824;2022-10-16T19:55:59;-21736.63;;;16.02;100.00
19890;BME280;10107;51.198;6.824;2022-10-16T20:00:03;-21732.69;;;15.87;100.00
19890;BME280;10107;51.198;6.824;2022-10-16T20:04:07;-21730.34;;;15.78;100.00
19890;BME280;10107;51.198;6.824;2022-10-16T20:08:09;-21727.84;;;15.68;100.00
19890;BME280;10107;51.198;6.824;2022-10-16T20:12:11;-21725.88;;;15.60;100.00
19890;BME280;10107;51.198;6.824;2022-10-16T20:16:15;-21725.06;;;15.57;100.00
19890;BME280;10107;51.198;6.824;2022-10-16T20:20:18;-21724.28;;;15.54;100.00
19890;BME280;10107;51.198;6.824;2022-10-16T20:24:20;-21722.31;;;15.47;100.00
19890;BME280;10107;51.198;6.824;2022-10-16T20:28:22;-21719.41;;;15.35;100.00
19890;BME280;10107;51.198;6.824;2022-10-16T20:32:25;-21717.19;;;15.27;100.00
19890;BME280;10107;51.198;6.824;2022-10-16T20:36:27;-21717.72;;;15.29;100.00
19890;BME280;10107;51.198;6.824;2022-10-16T20:40:32;-21718.25;;;15.31;100.00
19890;BME280;10107;51.198;6.824;2022-10-16T20:44:34;-21719.28;;;15.35;100.00
19890;BME280;10107;51.198;6.824;2022-10-16T20:48:37;-21718.25;;;15.31;100.00
19890;BME280;10107;51.198;6.824;2022-10-16T20:52:43;-21716.94;;;15.25;100.00
19890;BME280;10107;51.198;6.824;2022-10-16T20:56:45;-21715.47;;;15.20;100.00
19890;BME280;10107;51.198;6.824;2022-10-16T21:00:47;-21713.91;;;15.14;100.00
19890;BME280;10107;51.198;6.824;2022-10-16T21:04:51;-21712.59;;;15.09;100.00
19890;BME280;10107;51.198;6.824;2022-10-16T21:08:53;-21712.06;;;15.07;100.00
19890;BME280;10107;51.198;6.824;2022-10-16T21:12:54;-21710.88;;;15.02;100.00